createdAt,value
2022-10-02T00:01:17.219Z,1.90
2022-10-02T00:06:35.503Z,1.90
2022-10-02T00:11:54.082Z,1.80
2022-10-02T00:17:00.977Z,2.10
2022-10-02T00:22:30.668Z,2.30
2022-10-02T00:28:47.396Z,1.70
2022-10-02T00:34:21.846Z,2.00
2022-10-02T00:39:58.668Z,1.80
2022-10-02T00:45:53.193Z,1.80
2022-10-02T00:51:35.712Z,2.00
2022-10-02T00:57:01.128Z,1.70
2022-10-02T01:02:11.023Z,1.80
2022-10-02T01:07:20.704Z,1.80
2022-10-02T01:12:56.726Z,1.70
2022-10-02T01:18:02.728Z,1.50
2022-10-02T01:23:32.541Z,1.40
2022-10-02T01:28:55.104Z,1.90
2022-10-02T01:33:57.520Z,1.50
2022-10-02T01:39:05.265Z,1.70
2022-10-02T01:44:12.973Z,1.80
2022-10-02T01:50:10.832Z,1.80
2022-10-02T01:56:18.468Z,1.50
2022-10-02T02:02:17.923Z,2.00
2022-10-02T02:07:34.305Z,1.80
2022-10-02T02:13:24.217Z,2.10
2022-10-02T02:19:01.019Z,2.10
2022-10-02T02:24:10.607Z,2.10
2022-10-02T02:35:15.208Z,2.30
2022-10-02T02:40:32.342Z,2.40
2022-10-02T02:45:54.938Z,2.00
2022-10-02T02:51:34.004Z,2.10
2022-10-02T02:56:37.506Z,2.20
2022-10-02T03:01:46.023Z,2.40
2022-10-02T03:07:29.521Z,2.90
2022-10-02T03:13:03.647Z,2.20
2022-10-02T03:18:49.610Z,2.40
2022-10-02T03:24:27.903Z,2.20
2022-10-02T03:30:33.388Z,2.90
2022-10-02T03:35:50.607Z,2.30
2022-10-02T03:41:01.788Z,2.10
2022-10-02T03:46:04.077Z,2.30
2022-10-02T03:51:07.244Z,2.10
2022-10-02T03:56:44.437Z,2.20
2022-10-02T04:01:55.152Z,2.10
2022-10-02T04:07:07.809Z,2.30
2022-10-02T04:12:41.875Z,2.10
2022-10-02T04:18:15.940Z,2.10
2022-10-02T04:23:28.136Z,2.10
2022-10-02T04:29:12.317Z,1.90
2022-10-02T04:34:20.144Z,1.60
2022-10-02T04:39:46.723Z,2.20
2022-10-02T04:46:22.993Z,1.90
2022-10-02T04:52:15.242Z,1.60
2022-10-02T04:57:53.343Z,1.60
2022-10-02T05:03:44.001Z,1.80
2022-10-02T05:09:41.895Z,1.50
2022-10-02T05:15:33.908Z,1.50
2022-10-02T05:21:17.789Z,1.60
2022-10-02T05:26:45.103Z,2.40
2022-10-02T05:32:43.195Z,2.10
2022-10-02T05:38:34.943Z,2.10
2022-10-02T05:44:14.630Z,2.00
2022-10-02T05:49:22.836Z,2.10
2022-10-02T05:54:45.189Z,1.80
2022-10-02T06:00:29.761Z,1.70
2022-10-02T06:06:16.968Z,1.70
2022-10-02T06:12:13.595Z,1.50
2022-10-02T06:17:28.894Z,1.00
2022-10-02T06:23:02.187Z,1.20
2022-10-02T06:28:31.222Z,1.30
2022-10-02T06:33:57.955Z,1.50
2022-10-02T06:39:35.153Z,1.70
2022-10-02T06:45:18.170Z,1.90
2022-10-02T06:50:48.415Z,1.80
2022-10-02T06:56:05.644Z,1.80
2022-10-02T07:02:02.589Z,1.80
2022-10-02T07:07:36.107Z,1.40
2022-10-02T07:12:41.173Z,1.50
2022-10-02T07:18:59.684Z,1.20
2022-10-02T07:24:13.612Z,1.00
2022-10-02T07:29:52.684Z,1.20
2022-10-02T07:35:24.959Z,1.00
2022-10-02T07:41:02.073Z,0.90
2022-10-02T07:46:21.051Z,0.90
2022-10-02T07:51:49.189Z,1.00
2022-10-02T07:57:29.160Z,0.90
2022-10-02T08:03:44.443Z,1.50
2022-10-02T08:09:28.021Z,0.90
2022-10-02T08:14:59.244Z,1.10
2022-10-02T08:20:17.841Z,1.00
2022-10-02T08:25:31.109Z,0.90
2022-10-02T08:30:57.028Z,0.80
2022-10-02T08:36:18.991Z,1.00
2022-10-02T08:41:58.902Z,0.90
2022-10-02T08:47:10.531Z,0.80
2022-10-02T08:52:16.453Z,0.90
2022-10-02T08:57:48.187Z,1.10
2022-10-02T09:03:31.749Z,0.80
2022-10-02T09:09:07.288Z,1.00
2022-10-02T09:14:48.463Z,0.80
2022-10-02T09:20:15.678Z,0.90
2022-10-02T09:25:32.346Z,0.80
2022-10-02T09:31:09.784Z,0.80
2022-10-02T09:36:50.934Z,1.40
2022-10-02T09:42:29.805Z,0.70
2022-10-02T09:47:50.188Z,0.60
2022-10-02T09:53:08.332Z,0.60
2022-10-02T09:58:32.584Z,0.70
2022-10-02T10:03:50.247Z,1.00
2022-10-02T10:09:35.118Z,0.90
2022-10-02T10:15:32.464Z,0.90
2022-10-02T10:21:32.661Z,0.90
2022-10-02T10:27:30.432Z,1.00
2022-10-02T10:32:50.724Z,1.20
2022-10-02T10:38:38.718Z,1.20
2022-10-02T10:44:25.583Z,1.00
2022-10-02T10:50:04.313Z,0.90
2022-10-02T10:55:19.527Z,1.30
2022-10-02T11:00:26.552Z,1.10
2022-10-02T11:06:16.451Z,1.00
2022-10-02T11:12:13.830Z,3.10
2022-10-02T11:17:35.400Z,1.00
2022-10-02T11:23:19.999Z,1.20
2022-10-02T11:28:47.325Z,0.80
2022-10-02T11:34:39.977Z,0.80
2022-10-02T11:40:16.823Z,0.80
2022-10-02T11:45:48.091Z,1.20
2022-10-02T11:51:27.581Z,0.70
2022-10-02T11:57:01.825Z,0.90
2022-10-02T12:02:27.220Z,1.00
2022-10-02T12:08:42.480Z,1.30
2022-10-02T12:13:52.902Z,7.00
2022-10-02T12:19:33.345Z,0.90
2022-10-02T12:25:40.715Z,0.90
2022-10-02T12:30:51.270Z,1.40
2022-10-02T12:36:38.984Z,1.80
2022-10-02T12:42:02.911Z,1.10
2022-10-02T12:48:00.275Z,0.90
2022-10-02T12:53:36.633Z,0.70
2022-10-02T12:58:58.923Z,2.00
2022-10-02T13:04:28.143Z,4.90
2022-10-02T13:09:59.684Z,2.00
2022-10-02T13:15:10.666Z,0.70
2022-10-02T13:20:39.911Z,0.60
2022-10-02T13:26:27.000Z,1.40
2022-10-02T13:31:39.597Z,0.90
2022-10-02T13:37:04.846Z,5.10
2022-10-02T13:42:44.511Z,1.60
2022-10-02T13:48:06.334Z,0.90
2022-10-02T13:54:21.971Z,0.80
2022-10-02T13:59:30.647Z,1.00
2022-10-02T14:05:06.340Z,0.70
2022-10-02T14:10:41.808Z,0.90
2022-10-02T14:16:23.836Z,0.60
2022-10-02T14:21:52.304Z,0.70
2022-10-02T14:27:21.080Z,0.80
2022-10-02T14:33:16.757Z,1.00
2022-10-02T14:39:26.312Z,1.10
2022-10-02T14:45:03.287Z,1.10
2022-10-02T14:50:35.337Z,0.90
2022-10-02T14:56:09.826Z,2.90
2022-10-02T15:01:22.848Z,1.10
2022-10-02T15:06:46.392Z,1.20
2022-10-02T15:12:08.200Z,1.20
2022-10-02T15:17:49.399Z,1.40
2022-10-02T15:23:07.306Z,1.40
2022-10-02T15:28:45.144Z,1.10
2022-10-02T15:34:04.137Z,0.90
2022-10-02T15:39:32.945Z,1.00
2022-10-02T15:44:45.180Z,1.00
2022-10-02T15:50:24.025Z,0.90
2022-10-02T15:55:39.376Z,1.10
2022-10-02T16:01:29.535Z,1.00
2022-10-02T16:12:22.992Z,1.00
2022-10-02T16:18:07.550Z,0.80
2022-10-02T16:23:36.507Z,1.10
2022-10-02T16:29:42.053Z,1.20
2022-10-02T16:35:11.322Z,1.10
2022-10-02T16:40:44.528Z,0.90
2022-10-02T16:46:11.451Z,1.00
2022-10-02T16:52:08.885Z,1.50
2022-10-02T16:57:55.105Z,1.70
2022-10-02T17:03:22.692Z,1.40
2022-10-02T17:09:12.192Z,2.20
2022-10-02T17:14:43.189Z,1.70
2022-10-02T17:20:40.832Z,3.90
2022-10-02T17:26:16.433Z,6.00
2022-10-02T17:31:46.390Z,4.50
2022-10-02T17:37:17.387Z,3.80
2022-10-02T17:42:25.199Z,3.50
2022-10-02T17:48:05.942Z,4.80
2022-10-02T17:53:50.931Z,4.40
2022-10-02T17:59:10.908Z,6.50
2022-10-02T18:04:31.867Z,2.70
2022-10-02T18:09:39.719Z,2.90
2022-10-02T18:15:19.263Z,2.10
2022-10-02T18:20:30.144Z,1.30
2022-10-02T18:26:05.353Z,1.20
2022-10-02T18:32:00.023Z,1.00
2022-10-02T18:37:32.811Z,1.30
2022-10-02T18:42:57.367Z,1.20
2022-10-02T18:48:02.861Z,1.30
2022-10-02T18:54:02.229Z,1.20
2022-10-02T19:00:10.703Z,1.50
2022-10-02T19:05:58.726Z,1.40
2022-10-02T19:11:50.095Z,1.10
2022-10-02T19:17:15.574Z,1.50
2022-10-02T19:22:34.320Z,1.80
2022-10-02T19:28:17.890Z,1.30
2022-10-02T19:33:42.213Z,1.60
2022-10-02T19:38:49.715Z,1.60
2022-10-02T19:44:06.643Z,1.40
2022-10-02T19:49:38.466Z,1.40
2022-10-02T19:54:41.079Z,1.40
2022-10-02T19:59:49.253Z,1.20
2022-10-02T20:04:57.938Z,1.60
2022-10-02T20:10:30.292Z,1.20
2022-10-02T20:16:14.491Z,1.40
2022-10-02T20:21:38.608Z,1.70
2022-10-02T20:26:47.066Z,1.70
2022-10-02T20:31:57.059Z,1.60
2022-10-02T20:37:06.297Z,1.60
2022-10-02T20:42:39.188Z,1.70
2022-10-02T20:47:50.067Z,2.00
2022-10-02T20:53:57.370Z,1.80
2022-10-02T20:59:13.603Z,1.70
2022-10-02T21:04:59.514Z,2.10
2022-10-02T21:10:57.532Z,2.20
2022-10-02T21:16:20.183Z,1.50
2022-10-02T21:22:08.224Z,1.80
2022-10-02T21:28:13.514Z,2.40
2022-10-02T21:34:26.752Z,2.30
2022-10-02T21:40:58.105Z,2.80
2022-10-02T21:47:10.084Z,3.00
2022-10-02T21:59:24.784Z,2.30
2022-10-02T22:06:03.885Z,2.50
2022-10-02T22:11:59.998Z,3.20
2022-10-02T22:18:35.928Z,2.20
2022-10-02T22:25:26.611Z,2.40
2022-10-02T22:31:48.452Z,2.00
2022-10-02T22:38:18.695Z,2.40
2022-10-02T22:44:23.275Z,2.50
2022-10-02T22:50:56.850Z,3.10
2022-10-02T22:57:16.250Z,3.10
2022-10-02T23:03:53.412Z,3.20
2022-10-02T23:09:41.200Z,3.80
2022-10-02T23:15:53.730Z,4.00
2022-10-02T23:22:24.264Z,4.10
2022-10-02T23:29:10.219Z,3.70
2022-10-02T23:35:51.630Z,3.80
2022-10-02T23:42:33.711Z,3.20
2022-10-02T23:49:19.393Z,4.00
2022-10-02T23:55:49.825Z,3.50
